Time;durP1;ratioP1;P1;durP2;ratioP2;P2;SDS_P1;SDS_P2;PMS_P1;PMS_P2;Temp;Humidity;BMP_temperature;BMP_pressure;BME280_temperature;BME280_humidity;BME280_pressure;Samples;Min_cycle;Max_cycle;Signal;HPM_P1;HPM_P2
2023/06/24 00:01:26;;;;;;;5.10;4.60;;;;;;;17.88;70.02;155956.03;5027023;28;20506;-77
2023/06/24 00:03:53;;;;;;;5.87;5.10;;;;;;;17.84;70.61;155945.66;5026101;28;21016;-77
2023/06/24 00:06:20;;;;;;;6.10;5.10;;;;;;;17.85;70.88;155949.53;5028499;28;20450;-77
2023/06/24 00:08:48;;;;;;;5.60;4.90;;;;;;;17.82;70.81;155941.72;5048923;28;20451;-77
2023/06/24 00:11:15;;;;;;;6.10;5.60;;;;;;;17.79;70.63;155933.91;5050021;28;20588;-77
2023/06/24 00:13:41;;;;;;;6.17;4.63;;;;;;;17.71;71.00;155913.13;5048650;28;21112;-77
2023/06/24 00:16:08;;;;;;;5.30;4.77;;;;;;;17.64;71.33;155894.84;5033015;28;20454;-77
2023/06/24 00:18:35;;;;;;;5.20;4.70;;;;;;;17.61;71.58;155887.03;5047893;28;20467;-77
2023/06/24 00:21:02;;;;;;;5.90;5.40;;;;;;;17.55;72.03;155872.72;5052348;28;20952;-77
2023/06/24 00:23:30;;;;;;;6.00;4.83;;;;;;;17.55;72.27;155872.72;5032078;28;20454;-77
2023/06/24 00:25:57;;;;;;;5.30;4.60;;;;;;;17.54;71.77;155868.84;5049223;28;20458;-76
2023/06/24 00:28:24;;;;;;;5.27;4.70;;;;;;;17.49;72.09;155855.78;5030425;28;20459;-77
2023/06/24 00:30:51;;;;;;;4.70;4.00;;;;;;;17.42;72.48;155837.56;5047999;28;20889;-77
2023/06/24 00:33:19;;;;;;;6.27;5.33;;;;;;;17.35;72.72;155819.31;5030660;28;22207;-76
2023/06/24 00:35:45;;;;;;;6.07;5.47;;;;;;;17.38;72.92;155827.13;5029762;28;20444;-76
2023/06/24 00:38:12;;;;;;;6.27;5.67;;;;;;;17.35;73.20;155819.31;5028677;28;20458;-76
2023/06/24 00:40:39;;;;;;;5.97;5.20;;;;;;;17.33;73.47;155815.44;5027818;28;20463;-76
2023/06/24 00:43:07;;;;;;;5.67;5.17;;;;;;;17.33;73.80;155814.13;5027877;28;21052;-76
2023/06/24 00:45:34;;;;;;;5.90;5.33;;;;;;;17.28;74.82;155801.09;5043565;28;20462;-76
2023/06/24 00:48:03;;;;;;;9.60;6.00;;;;;;;17.20;75.35;155781.59;5027288;28;20783;-76
2023/06/24 00:50:29;;;;;;;7.87;6.20;;;;;;;17.16;75.59;155769.84;5041872;28;20974;-76
2023/06/24 00:52:56;;;;;;;6.40;5.80;;;;;;;17.12;75.61;155760.78;5029931;28;20486;-76
2023/06/24 00:55:22;;;;;;;7.13;6.17;;;;;;;17.02;75.97;155736.00;5034581;28;20575;-76
2023/06/24 00:57:51;;;;;;;5.87;5.17;;;;;;;17.00;77.17;155729.50;5031057;28;20541;-76
2023/06/24 01:00:21;;;;;;;6.67;5.90;;;;;;;16.98;78.10;155725.63;5029582;28;20490;-76
2023/06/24 01:02:49;;;;;;;6.87;6.17;;;;;;;16.95;78.16;155717.81;5045909;28;20440;-76
2023/06/24 01:05:16;;;;;;;6.87;5.73;;;;;;;16.91;78.52;155706.13;5028649;28;20455;-76
2023/06/24 01:07:43;;;;;;;6.37;5.53;;;;;;;16.93;78.34;155712.63;5044833;28;20862;-76
2023/06/24 01:10:11;;;;;;;7.23;6.37;;;;;;;16.91;78.68;155706.13;5009344;28;20455;-76
2023/06/24 01:12:43;;;;;;;6.97;6.13;;;;;;;16.84;79.24;155687.88;5029091;28;20447;-76
2023/06/24 01:15:11;;;;;;;6.67;5.97;;;;;;;16.78;78.92;155672.28;5024600;28;20459;-76
2023/06/24 01:17:44;;;;;;;7.47;6.77;;;;;;;16.79;79.15;155674.88;5026698;28;20534;-76
2023/06/24 01:20:13;;;;;;;6.23;5.60;;;;;;;16.81;78.80;155681.38;5007853;28;20452;-76
2023/06/24 01:23:07;;;;;;;7.50;6.10;;;;;;;16.81;78.48;155681.38;5026874;28;20954;-76
2023/06/24 01:25:44;;;;;;;7.13;6.53;;;;;;;16.81;78.74;155681.38;5010088;28;20538;-76
2023/06/24 01:28:34;;;;;;;8.20;6.67;;;;;;;16.78;78.88;155673.59;5037996;28;20456;-76
2023/06/24 01:31:23;;;;;;;7.50;6.70;;;;;;;16.80;79.21;155678.78;5026326;28;20487;-76
2023/06/24 01:33:51;;;;;;;7.20;6.60;;;;;;;16.79;79.14;155676.19;5007640;28;20563;-76
2023/06/24 01:36:21;;;;;;;7.37;6.67;;;;;;;16.78;79.76;155673.59;5024097;28;20823;-76
2023/06/24 01:38:49;;;;;;;7.93;6.73;;;;;;;16.70;79.59;155651.47;5026224;28;20522;-76
2023/06/24 01:41:20;;;;;;;7.13;6.20;;;;;;;16.64;79.72;155637.16;5027880;28;20452;-76
2023/06/24 01:43:46;;;;;;;6.20;5.53;;;;;;;16.55;79.66;155613.72;5024493;28;20463;-76
2023/06/24 01:46:15;;;;;;;8.70;6.70;;;;;;;16.52;80.15;155605.88;5016750;28;20451;-76
2023/06/24 01:48:45;;;;;;;8.60;6.37;;;;;;;16.50;80.51;155600.66;5029692;28;20440;-76
2023/06/24 01:51:13;;;;;;;6.93;6.03;;;;;;;16.47;80.15;155592.88;5022188;28;20467;-76
2023/06/24 01:53:44;;;;;;;7.23;6.53;;;;;;;16.46;80.63;155590.28;5026500;28;20472;-76
2023/06/24 01:56:13;;;;;;;6.70;6.10;;;;;;;16.43;80.68;155582.47;5041231;28;20460;-76
2023/06/24 01:58:41;;;;;;;6.50;5.90;;;;;;;16.39;80.93;155573.34;5027532;28;20452;-76
2023/06/24 02:01:08;;;;;;;7.30;6.37;;;;;;;16.38;81.10;155569.47;5027659;28;20498;-76
2023/06/24 02:03:35;;;;;;;7.00;6.23;;;;;;;16.34;81.55;155559.06;5025847;28;20444;-76
2023/06/24 02:06:05;;;;;;;7.27;6.30;;;;;;;16.30;81.57;155548.66;5009982;28;20468;-76
2023/06/24 02:08:34;;;;;;;7.57;6.23;;;;;;;16.27;81.89;155542.16;5027562;28;20513;-75
2023/06/24 02:11:02;;;;;;;7.90;6.00;;;;;;;16.24;81.82;155533.06;5027441;28;20542;-75
2023/06/24 02:13:31;;;;;;;6.90;6.20;;;;;;;16.21;82.49;155525.25;5028828;28;20527;-75
2023/06/24 02:15:59;;;;;;;6.93;6.23;;;;;;;16.18;82.36;155517.44;5027353;28;20444;-75
2023/06/24 02:18:27;;;;;;;7.67;6.40;;;;;;;16.16;82.95;155512.25;5010088;28;21016;-75
2023/06/24 02:20:54;;;;;;;8.13;6.57;;;;;;;16.10;82.81;155497.94;5019757;28;20463;-75
2023/06/24 02:23:22;;;;;;;8.37;6.87;;;;;;;16.07;83.07;155488.88;5029820;28;20456;-75
2023/06/24 02:25:50;;;;;;;7.17;6.47;;;;;;;16.04;83.13;155481.06;5027074;28;20460;-76
2023/06/24 02:28:17;;;;;;;7.30;6.50;;;;;;;16.00;83.72;155470.63;5024434;28;20464;-76
2023/06/24 02:30:44;;;;;;;7.40;6.53;;;;;;;15.98;83.66;155466.75;5029449;28;21008;-76
2023/06/24 02:33:11;;;;;;;7.47;6.70;;;;;;;16.00;83.73;155470.63;5042426;28;20536;-75
2023/06/24 02:35:38;;;;;;;7.20;6.47;;;;;;;16.00;84.18;155471.94;5009676;28;20460;-76
2023/06/24 02:38:04;;;;;;;7.53;6.30;;;;;;;15.99;84.29;155468.06;5045208;28;20458;-76
2023/06/24 02:40:33;;;;;;;7.17;6.43;;;;;;;15.93;84.19;155452.44;5027136;28;20532;-75
2023/06/24 02:43:00;;;;;;;7.40;6.67;;;;;;;15.87;84.39;155438.13;5043027;28;20536;-75
2023/06/24 02:45:27;;;;;;;7.23;6.53;;;;;;;15.85;84.66;155432.94;5020282;28;20452;-76
2023/06/24 02:47:55;;;;;;;7.00;6.17;;;;;;;15.84;84.36;155430.31;5025522;28;21005;-75
2023/06/24 02:50:22;;;;;;;8.23;6.60;;;;;;;15.83;84.53;155429.03;5027165;28;21141;-75
2023/06/24 02:52:51;;;;;;;8.17;6.73;;;;;;;15.82;85.15;155425.13;5025519;28;20491;-75
2023/06/24 02:55:20;;;;;;;9.20;6.37;;;;;;;15.79;85.02;155417.34;5010663;28;20985;-75
2023/06/24 02:57:53;;;;;;;7.00;6.27;;;;;;;15.73;85.16;155403.03;5030581;28;20467;-75
2023/06/24 03:00:31;;;;;;;7.13;6.43;;;;;;;15.68;85.49;155388.72;5046975;28;20790;-75
2023/06/24 03:03:18;;;;;;;12.90;8.13;;;;;;;15.66;85.66;155383.53;5035506;28;20447;-75
2023/06/24 03:05:50;;;;;;;7.33;6.53;;;;;;;15.66;86.01;155384.84;5028630;28;20820;-75
2023/06/24 03:08:17;;;;;;;9.10;6.47;;;;;;;15.68;85.93;155388.72;5011805;28;20454;-75
2023/06/24 03:10:46;;;;;;;8.57;6.60;;;;;;;15.67;85.77;155386.16;5023764;28;20467;-77
2023/06/24 03:13:20;;;;;;;8.30;7.33;;;;;;;15.62;85.78;155374.41;5029523;28;20512;-75
2023/06/24 03:15:52;;;;;;;7.80;7.00;;;;;;;15.59;85.95;155365.34;5011155;28;20451;-77
2023/06/24 03:18:18;;;;;;;8.93;8.00;;;;;;;15.56;86.02;155358.84;5012259;28;20526;-74
2023/06/24 03:20:47;;;;;;;9.00;7.03;;;;;;;15.55;86.46;155354.94;5029074;28;20550;-75
2023/06/24 03:23:18;;;;;;;7.00;6.30;;;;;;;15.51;86.51;155345.88;5028378;28;20536;-77
2023/06/24 03:25:44;;;;;;;7.13;6.43;;;;;;;15.50;86.60;155343.25;5032487;28;20471;-76
2023/06/24 03:28:11;;;;;;;7.93;7.13;;;;;;;15.48;86.91;155338.06;5011061;28;20455;-76
2023/06/24 03:30:45;;;;;;;7.63;6.87;;;;;;;15.47;86.50;155335.44;5003571;28;20546;-76
2023/06/24 03:33:16;;;;;;;7.63;6.23;;;;;;;15.50;86.75;155343.25;5026889;28;20517;-76
2023/06/24 03:35:44;;;;;;;8.03;6.90;;;;;;;15.49;86.68;155339.38;5006732;28;20459;-76
2023/06/24 03:38:14;;;;;;;7.20;6.50;;;;;;;15.51;86.90;155344.56;5008076;28;20546;-76
2023/06/24 03:40:41;;;;;;;8.17;7.10;;;;;;;15.54;86.92;155353.63;5009905;28;20830;-76
2023/06/24 03:43:07;;;;;;;8.03;6.70;;;;;;;15.54;86.34;155352.38;5025601;28;20568;-77
2023/06/24 03:45:34;;;;;;;6.80;6.10;;;;;;;15.55;86.49;155356.25;5026591;28;20542;-77
2023/06/24 03:48:02;;;;;;;7.13;6.43;;;;;;;15.56;86.79;155357.56;5025465;28;20455;-77
2023/06/24 03:50:30;;;;;;;7.07;6.37;;;;;;;15.59;86.76;155365.34;5008489;28;20455;-76
2023/06/24 03:52:56;;;;;;;7.37;6.70;;;;;;;15.59;86.65;155365.34;5016326;28;20808;-76
2023/06/24 03:55:23;;;;;;;6.93;6.13;;;;;;;15.58;86.68;155364.03;5023610;28;20475;-77
2023/06/24 03:57:49;;;;;;;6.47;5.27;;;;;;;15.61;86.78;155371.84;5018954;28;20514;-77
2023/06/24 04:00:20;;;;;;;6.23;5.63;;;;;;;15.64;86.71;155378.34;5024075;28;20463;-77
2023/06/24 04:02:47;;;;;;;6.23;5.60;;;;;;;15.70;86.64;155393.97;5037876;28;20462;-77
2023/06/24 04:05:15;;;;;;;6.87;5.93;;;;;;;15.76;86.45;155410.84;5044622;28;20444;-77
2023/06/24 04:07:46;;;;;;;6.07;5.47;;;;;;;15.86;85.95;155434.25;5016840;28;20813;-76
2023/06/24 04:10:14;;;;;;;6.70;5.83;;;;;;;15.99;85.70;155468.06;4999555;28;20997;-77
2023/06/24 04:12:40;;;;;;;6.33;5.40;;;;;;;16.12;85.37;155501.88;5041099;28;20573;-77
2023/06/24 04:15:08;;;;;;;6.90;6.20;;;;;;;16.29;84.50;155547.34;5045854;28;20600;-77
2023/06/24 04:17:34;;;;;;;5.20;4.30;;;;;;;16.44;83.58;155586.38;4999470;28;20475;-77
2023/06/24 04:20:04;;;;;;;6.00;5.30;;;;;;;16.62;82.61;155631.97;5021308;28;20463;-77
2023/06/24 04:22:32;;;;;;;5.90;5.30;;;;;;;16.78;82.23;155672.28;5043941;28;20451;-77
2023/06/24 04:24:59;;;;;;;5.53;5.03;;;;;;;16.92;81.47;155710.00;5011598;28;20443;-77
2023/06/24 04:27:26;;;;;;;7.40;6.13;;;;;;;17.07;80.69;155746.44;4995767;28;20455;-77
2023/06/24 04:29:53;;;;;;;5.53;4.93;;;;;;;17.21;79.78;155784.16;5034037;28;20450;-77
2023/06/24 04:32:19;;;;;;;6.20;5.60;;;;;;;17.37;79.12;155824.50;5021407;28;20537;-77
2023/06/24 04:34:49;;;;;;;6.70;6.00;;;;;;;17.53;78.49;155867.53;5004082;28;20476;-77
2023/06/24 04:37:16;;;;;;;6.17;5.67;;;;;;;17.70;77.53;155909.19;5007871;28;20815;-77
2023/06/24 04:39:45;;;;;;;6.47;5.30;;;;;;;17.81;77.07;155937.84;4990672;28;20534;-77
2023/06/24 04:42:12;;;;;;;5.87;5.30;;;;;;;17.92;76.60;155966.50;5005497;28;21110;-77
2023/06/24 04:44:39;;;;;;;6.87;5.63;;;;;;;17.99;76.03;155986.00;5022458;28;20444;-77
2023/06/24 04:47:05;;;;;;;6.17;5.13;;;;;;;18.03;75.68;155996.41;5036172;28;20521;-77
2023/06/24 04:49:32;;;;;;;6.00;5.40;;;;;;;18.07;75.49;156005.53;5040295;28;20471;-77
2023/06/24 04:52:00;;;;;;;6.30;5.70;;;;;;;18.17;75.36;156032.88;5042503;28;20454;-77
2023/06/24 04:54:27;;;;;;;7.00;6.30;;;;;;;18.29;75.10;156061.53;5024956;28;20479;-77
2023/06/24 04:56:55;;;;;;;6.10;5.10;;;;;;;18.40;74.79;156090.22;5040725;28;20452;-74
2023/06/24 04:59:22;;;;;;;6.80;5.80;;;;;;;18.52;74.12;156122.81;5027376;28;20862;-77
2023/06/24 05:01:48;;;;;;;6.47;5.87;;;;;;;18.67;74.15;156160.56;5027125;28;20993;-77
2023/06/24 05:04:15;;;;;;;6.13;5.57;;;;;;;18.78;73.45;156189.22;5036301;28;20452;-76
2023/06/24 05:06:41;;;;;;;6.30;5.50;;;;;;;18.94;73.54;156229.63;5035573;28;21060;-76
2023/06/24 05:09:08;;;;;;;7.00;6.30;;;;;;;19.07;72.39;156263.50;5018762;28;20523;-76
2023/06/24 05:11:35;;;;;;;6.57;5.90;;;;;;;19.13;72.07;156279.16;5033146;28;21053;-77
2023/06/24 05:14:03;;;;;;;6.80;6.10;;;;;;;19.19;71.97;156296.13;5031703;28;20460;-77
2023/06/24 05:16:30;;;;;;;6.70;6.00;;;;;;;19.26;71.65;156313.03;5032541;28;20498;-76
2023/06/24 05:18:56;;;;;;;7.00;6.17;;;;;;;19.34;71.53;156335.19;5007661;28;20562;-85
2023/06/24 05:21:24;;;;;;;7.90;5.70;;;;;;;19.41;71.58;156352.16;5020213;28;20551;-85
2023/06/24 05:23:51;;;;;;;6.40;5.80;;;;;;;19.59;71.23;156399.09;5039476;28;20451;-85
2023/06/24 05:26:18;;;;;;;6.60;6.00;;;;;;;19.70;70.38;156426.47;5022367;28;20448;-85
2023/06/24 05:28:44;;;;;;;6.50;5.80;;;;;;;19.80;70.24;156452.59;5037990;28;20815;-85
2023/06/24 05:31:12;;;;;;;7.70;5.93;;;;;;;19.98;69.76;156499.50;5037178;28;20640;-84
2023/06/24 05:33:39;;;;;;;6.70;6.00;;;;;;;20.04;69.74;156515.19;5020331;28;20448;-85
2023/06/24 05:36:06;;;;;;;6.00;5.40;;;;;;;20.17;69.38;156549.06;5027220;28;20486;-85
2023/06/24 05:38:33;;;;;;;8.30;6.60;;;;;;;20.36;68.97;156597.38;5025760;28;20513;-85
2023/06/24 05:41:01;;;;;;;7.23;6.33;;;;;;;20.55;67.93;156648.22;5037070;28;20464;-85
2023/06/24 05:43:28;;;;;;;7.30;6.40;;;;;;;20.72;67.72;156689.97;5037715;28;20463;-85
2023/06/24 05:45:54;;;;;;;6.37;5.70;;;;;;;20.92;67.14;156742.16;5018882;28;20451;-85
2023/06/24 05:48:25;;;;;;;6.90;6.20;;;;;;;21.04;66.09;156774.81;5024851;28;20961;-85
2023/06/24 05:50:53;;;;;;;6.90;6.20;;;;;;;21.22;65.99;156820.53;5034811;28;20447;-85
2023/06/24 05:53:20;;;;;;;6.90;6.30;;;;;;;21.38;64.87;156862.28;5035610;28;20501;-84
2023/06/24 05:55:48;;;;;;;6.80;5.90;;;;;;;21.56;64.74;156909.28;5039036;28;20582;-85
2023/06/24 05:58:15;;;;;;;6.37;5.77;;;;;;;21.64;64.11;156930.16;5023620;28;20510;-85
2023/06/24 06:00:41;;;;;;;6.33;5.83;;;;;;;21.80;63.73;156971.94;5026591;28;20462;-85
2023/06/24 06:03:09;;;;;;;6.63;6.03;;;;;;;21.92;63.38;157002.03;5019678;28;20460;-85
2023/06/24 06:05:37;;;;;;;5.80;5.20;;;;;;;21.93;62.23;157004.63;5025188;28;20447;-85
2023/06/24 06:08:04;;;;;;;6.23;5.63;;;;;;;22.11;63.08;157050.31;5022126;28;20448;-85
2023/06/24 06:10:31;;;;;;;5.87;5.37;;;;;;;22.28;61.53;157096.06;5021843;28;20981;-85
2023/06/24 06:12:57;;;;;;;5.90;5.33;;;;;;;22.48;61.33;157145.69;5023066;28;20557;-85
2023/06/24 06:15:24;;;;;;;5.97;5.47;;;;;;;22.59;61.15;157175.72;5023996;28;20487;-85
2023/06/24 06:17:55;;;;;;;6.40;5.80;;;;;;;22.77;60.59;157222.78;5027071;28;20462;-85
2023/06/24 06:20:25;;;;;;;6.03;5.47;;;;;;;22.90;59.87;157256.75;5028599;28;20459;-85
2023/06/24 06:22:54;;;;;;;6.40;5.80;;;;;;;22.94;59.38;157265.91;5032615;28;20505;-86
2023/06/24 06:25:23;;;;;;;6.00;5.47;;;;;;;22.96;58.48;157272.44;5018058;28;20455;-85
2023/06/24 06:27:55;;;;;;;6.00;5.43;;;;;;;23.09;58.97;157303.84;5015268;28;20452;-85
2023/06/24 06:30:25;;;;;;;6.40;5.80;;;;;;;23.24;59.48;157343.03;5025675;28;20454;-85
2023/06/24 06:32:52;;;;;;;5.20;4.70;;;;;;;23.33;58.87;157366.53;5015885;28;20470;-85
2023/06/24 06:35:21;;;;;;;5.50;5.00;;;;;;;23.50;57.54;157411.03;5011608;28;20545;-85
2023/06/24 06:37:52;;;;;;;7.87;5.20;;;;;;;23.82;57.81;157494.72;5004520;28;20502;-84
2023/06/24 06:40:20;;;;;;;6.63;6.00;;;;;;;23.94;56.56;157526.06;5016637;28;21040;-84
2023/06/24 06:42:46;;;;;;;5.23;4.83;;;;;;;24.01;55.87;157543.09;4996986;28;20463;-83
2023/06/24 06:45:13;;;;;;;5.83;5.33;;;;;;;24.05;55.62;157553.53;5015071;28;20459;-85
2023/06/24 06:47:40;;;;;;;5.37;4.90;;;;;;;24.16;55.35;157583.69;5006871;28;20824;-84
2023/06/24 06:50:07;;;;;;;6.00;5.20;;;;;;;24.37;53.50;157635.97;5004198;28;20451;-84
2023/06/24 06:52:34;;;;;;;4.90;4.50;;;;;;;24.58;51.97;157692.22;4997576;28;20447;-85
2023/06/24 06:55:03;;;;;;;5.60;5.10;;;;;;;24.73;50.66;157731.44;4982099;28;20524;-84
2023/06/24 06:57:31;;;;;;;5.13;4.63;;;;;;;24.92;50.91;157779.91;5017978;28;20565;-85
2023/06/24 06:59:58;;;;;;;10.30;4.23;;;;;;;25.05;49.62;157813.91;4999462;28;20459;-84
2023/06/24 07:02:24;;;;;;;5.17;4.63;;;;;;;25.22;50.78;157857.13;5004990;28;20559;-84
2023/06/24 07:04:51;;;;;;;4.50;4.10;;;;;;;25.18;48.26;157847.94;5017702;28;20451;-85
2023/06/24 07:07:18;;;;;;;4.90;4.00;;;;;;;25.26;47.00;157868.88;5011496;28;20969;-85
2023/06/24 07:09:46;;;;;;;5.00;4.47;;;;;;;25.44;47.92;157916.00;4985664;28;20876;-84
2023/06/24 07:12:13;;;;;;;5.13;3.80;;;;;;;25.53;47.48;157936.97;5007975;28;20459;-84
2023/06/24 07:14:41;;;;;;;5.60;4.07;;;;;;;25.71;47.07;157984.09;5004206;28;20471;-84
2023/06/24 07:17:08;;;;;;;4.87;4.37;;;;;;;25.72;47.63;157986.72;5002681;28;20448;-84
2023/06/24 07:19:35;;;;;;;5.00;3.73;;;;;;;25.85;47.53;158020.78;5018301;28;20890;-84
2023/06/24 07:22:01;;;;;;;4.43;4.03;;;;;;;25.97;47.49;158053.47;5003095;28;20935;-84
2023/06/24 07:24:28;;;;;;;4.87;4.47;;;;;;;26.03;48.14;158067.88;5002863;28;20452;-84
2023/06/24 07:26:54;;;;;;;4.47;4.00;;;;;;;26.17;47.35;158104.63;5016376;28;20520;-85
2023/06/24 07:29:21;;;;;;;4.20;3.80;;;;;;;26.38;46.13;158158.31;5008332;28;20464;-85
2023/06/24 07:31:49;;;;;;;4.30;3.90;;;;;;;26.49;46.27;158188.44;5019666;28;20481;-85
2023/06/24 07:34:16;;;;;;;5.60;4.63;;;;;;;26.61;44.10;158219.84;5023302;28;20888;-84
2023/06/24 07:36:42;;;;;;;6.40;4.47;;;;;;;26.75;45.48;158253.91;5016921;28;20481;-84
2023/06/24 07:39:09;;;;;;;5.93;4.20;;;;;;;26.81;46.62;158271.00;5017151;28;20543;-84
2023/06/24 07:41:36;;;;;;;4.83;4.33;;;;;;;26.82;44.53;158273.59;5020181;28;20462;-84
2023/06/24 07:44:02;;;;;;;4.47;4.07;;;;;;;26.78;45.68;158263.13;5013802;28;20463;-84
2023/06/24 07:46:29;;;;;;;4.47;4.07;;;;;;;26.85;44.58;158280.16;5018933;28;20540;-84
2023/06/24 07:48:57;;;;;;;4.60;4.20;;;;;;;26.93;44.03;158301.09;5016095;28;20460;-84
2023/06/24 07:51:24;;;;;;;6.63;4.30;;;;;;;27.09;43.24;158344.34;5022137;28;20975;-84
2023/06/24 07:53:50;;;;;;;4.80;4.40;;;;;;;27.17;45.25;158364.00;5027653;28;21331;-84
2023/06/24 07:56:17;;;;;;;5.00;4.53;;;;;;;27.29;43.31;158395.47;5030172;28;20484;-85
2023/06/24 07:58:44;;;;;;;5.20;4.70;;;;;;;27.45;43.97;158437.47;5012351;28;20461;-85
2023/06/24 08:01:10;;;;;;;4.80;4.40;;;;;;;27.45;43.73;158437.47;5014580;28;20919;-84
2023/06/24 08:03:37;;;;;;;4.50;4.10;;;;;;;27.63;41.75;158483.31;5031685;28;20457;-85
2023/06/24 08:06:08;;;;;;;5.60;4.73;;;;;;;27.61;43.09;158479.41;5017459;28;20482;-85
2023/06/24 08:08:35;;;;;;;5.23;4.80;;;;;;;27.60;41.87;158476.75;5019960;28;20463;-85
2023/06/24 08:11:03;;;;;;;4.90;4.50;;;;;;;27.70;42.01;158502.97;5020449;28;21062;-84
2023/06/24 08:13:29;;;;;;;5.03;4.57;;;;;;;27.47;41.95;158442.69;5015666;28;20467;-85
2023/06/24 08:15:57;;;;;;;5.20;4.80;;;;;;;27.54;43.88;158459.69;5031850;28;20538;-84
2023/06/24 08:18:23;;;;;;;4.50;4.10;;;;;;;27.79;41.99;158525.25;5023492;28;20451;-84
2023/06/24 08:20:50;;;;;;;4.80;4.40;;;;;;;28.00;43.00;158579.00;5015107;28;20467;-84
2023/06/24 08:23:18;;;;;;;9.30;4.97;;;;;;;28.22;42.03;158636.75;5016780;28;20869;-84
2023/06/24 08:25:44;;;;;;;4.77;4.37;;;;;;;28.16;40.76;158621.00;5020821;28;20969;-85
2023/06/24 08:28:11;;;;;;;4.90;4.47;;;;;;;28.21;41.86;158635.44;5024688;28;20971;-85
2023/06/24 08:30:37;;;;;;;5.83;4.50;;;;;;;28.30;42.17;158659.00;5021883;28;20452;-84
2023/06/24 08:33:04;;;;;;;4.50;4.20;;;;;;;28.40;41.68;158683.94;5041778;28;20451;-84
2023/06/24 08:35:30;;;;;;;4.73;4.33;;;;;;;28.36;41.91;158674.75;5026229;28;20478;-84
2023/06/24 08:37:57;;;;;;;4.93;4.53;;;;;;;28.42;42.57;158687.84;5033420;28;20474;-84
2023/06/24 08:40:25;;;;;;;4.80;4.40;;;;;;;28.52;39.93;158714.06;5021864;28;20458;-76
2023/06/24 08:42:52;;;;;;;4.17;3.87;;;;;;;28.43;39.12;158690.50;5040885;28;20910;-76
2023/06/24 08:45:18;;;;;;;4.80;4.40;;;;;;;28.18;39.10;158626.22;5024035;28;20474;-77
2023/06/24 08:47:45;;;;;;;4.60;3.73;;;;;;;28.03;39.13;158586.91;5022679;28;20465;-77
2023/06/24 08:50:13;;;;;;;4.40;4.00;;;;;;;27.89;39.00;158551.47;5040646;28;20454;-77
2023/06/24 08:52:43;;;;;;;5.00;4.60;;;;;;;27.57;39.52;158468.91;5005833;28;20566;-77
2023/06/24 08:55:11;;;;;;;5.33;4.80;;;;;;;27.00;40.28;158319.47;5036569;28;20823;-77
2023/06/24 08:57:39;;;;;;;4.30;3.90;;;;;;;27.15;40.30;158360.09;5035131;28;20472;-77
2023/06/24 09:00:09;;;;;;;4.10;3.70;;;;;;;27.54;39.12;158461.03;5037222;28;20823;-77
2023/06/24 09:02:37;;;;;;;4.30;3.80;;;;;;;27.09;39.59;158343.03;5037706;28;20806;-76
2023/06/24 09:05:05;;;;;;;4.90;4.30;;;;;;;26.92;40.54;158298.53;5038573;28;20451;-76
2023/06/24 09:07:31;;;;;;;4.50;4.10;;;;;;;27.12;40.08;158352.22;5039821;28;20517;-76
2023/06/24 09:09:58;;;;;;;4.43;4.00;;;;;;;27.33;39.86;158405.94;5038506;28;20810;-77
2023/06/24 09:12:26;;;;;;;6.10;4.60;;;;;;;27.58;38.84;158470.22;5023342;28;20550;-77
2023/06/24 09:14:54;;;;;;;4.60;4.20;;;;;;;27.64;38.52;158485.97;5037018;28;20481;-77
2023/06/24 09:17:22;;;;;;;5.77;5.27;;;;;;;27.64;38.43;158487.22;5040964;28;20557;-77
2023/06/24 09:19:49;;;;;;;5.30;4.40;;;;;;;27.61;39.16;158478.09;5025124;28;20487;-77
2023/06/24 09:22:17;;;;;;;6.33;4.23;;;;;;;27.50;39.19;158450.56;5025297;28;20464;-77
2023/06/24 09:24:46;;;;;;;4.17;3.87;;;;;;;27.62;39.26;158480.69;5020103;28;20450;-77
2023/06/24 09:27:13;;;;;;;4.30;3.90;;;;;;;27.56;39.12;158465.00;5039195;28;20447;-77
2023/06/24 09:29:41;;;;;;;4.30;3.90;;;;;;;27.29;39.28;158395.47;5035746;28;20448;-77
2023/06/24 09:32:10;;;;;;;4.73;4.33;;;;;;;27.12;39.54;158350.91;5039382;28;21420;-77
2023/06/24 09:34:37;;;;;;;4.70;4.33;;;;;;;26.84;39.32;158278.88;5025922;28;20474;-77
2023/06/24 09:37:04;;;;;;;4.97;4.47;;;;;;;26.81;40.72;158269.69;5031007;28;20471;-77
2023/06/24 09:39:36;;;;;;;4.63;4.23;;;;;;;26.99;40.54;158316.84;5019552;28;20466;-77
2023/06/24 09:42:06;;;;;;;4.90;4.50;;;;;;;27.01;40.07;158322.06;5022048;28;20974;-77
2023/06/24 09:44:33;;;;;;;4.80;4.20;;;;;;;27.24;40.20;158382.38;5025805;28;21009;-77
2023/06/24 09:46:59;;;;;;;4.40;4.00;;;;;;;27.34;37.95;158408.56;5040109;28;20807;-77
2023/06/24 09:49:27;;;;;;;3.97;3.67;;;;;;;26.97;37.65;158311.63;5036508;28;20829;-77
2023/06/24 09:51:56;;;;;;;4.80;4.40;;;;;;;27.03;38.31;158327.34;5024624;28;20941;-77
2023/06/24 09:54:26;;;;;;;8.53;3.97;;;;;;;27.12;38.78;158350.91;5041074;28;20465;-77
2023/06/24 09:56:53;;;;;;;4.50;4.10;;;;;;;27.14;38.99;158357.44;5026956;28;20467;-77
2023/06/24 09:59:21;;;;;;;4.30;3.77;;;;;;;27.43;37.63;158432.19;5037759;28;20447;-77
2023/06/24 10:01:48;;;;;;;4.50;4.10;;;;;;;27.38;37.42;158419.03;5021594;28;21167;-77
2023/06/24 10:04:17;;;;;;;4.13;3.73;;;;;;;27.44;37.88;158434.81;5038398;28;20456;-77
2023/06/24 10:06:45;;;;;;;5.23;4.60;;;;;;;27.18;36.88;158366.63;5022378;28;20458;-77
2023/06/24 10:09:13;;;;;;;8.63;3.90;;;;;;;26.93;36.52;158301.09;5037488;28;20800;-77
2023/06/24 10:11:40;;;;;;;4.00;3.60;;;;;;;27.05;38.57;158333.91;5040290;28;20827;-77
2023/06/24 10:14:06;;;;;;;4.43;4.03;;;;;;;27.23;37.11;158379.75;5038477;28;20452;-77
2023/06/24 10:16:33;;;;;;;4.67;4.27;;;;;;;27.24;37.71;158382.38;5027634;28;20560;-77
2023/06/24 10:19:01;;;;;;;5.17;4.77;;;;;;;26.89;39.43;158290.66;5035106;28;20509;-77
2023/06/24 10:21:47;;;;;;;4.67;4.27;;;;;;;26.82;39.16;158273.59;5021098;28;20495;-77
2023/06/24 10:24:14;;;;;;;4.57;4.17;;;;;;;26.86;38.70;158282.78;5019968;28;20541;-77
2023/06/24 10:26:41;;;;;;;4.80;4.30;;;;;;;26.50;39.01;158189.75;5026869;28;20462;-77
2023/06/24 10:29:14;;;;;;;4.80;4.40;;;;;;;26.20;39.29;158112.47;5025693;28;20459;-77
2023/06/24 10:31:54;;;;;;;4.40;4.00;;;;;;;25.86;39.58;158023.41;5040265;28;20463;-78
2023/06/24 10:34:48;;;;;;;4.50;4.10;;;;;;;25.78;39.06;158002.47;5020168;28;21035;-78
2023/06/24 10:37:21;;;;;;;4.20;3.80;;;;;;;26.08;39.49;158079.72;5000929;28;21076;-77
2023/06/24 10:39:50;;;;;;;4.73;3.70;;;;;;;26.51;39.09;158192.34;5035817;28;20860;-77
2023/06/24 10:42:34;;;;;;;4.60;4.20;;;;;;;26.76;39.94;158256.53;5038349;28;20458;-78
2023/06/24 10:45:02;;;;;;;5.13;4.30;;;;;;;26.87;38.44;158285.44;5036317;28;21064;-78
2023/06/24 10:47:30;;;;;;;4.30;3.80;;;;;;;27.04;39.81;158329.94;5025939;28;20972;-78
2023/06/24 10:49:57;;;;;;;4.63;4.17;;;;;;;27.28;38.34;158392.84;5037184;28;20448;-78
2023/06/24 10:52:25;;;;;;;4.60;4.20;;;;;;;27.57;38.41;158468.91;5025812;28;20532;-77
2023/06/24 10:54:52;;;;;;;4.27;3.97;;;;;;;27.62;37.57;158482.00;5038246;28;20557;-77
2023/06/24 10:57:23;;;;;;;5.13;3.90;;;;;;;27.62;36.51;158480.69;5025495;28;21318;-77
2023/06/24 10:59:51;;;;;;;5.60;3.80;;;;;;;27.21;36.14;158374.50;5037261;28;20491;-77
2023/06/24 11:02:18;;;;;;;4.00;3.70;;;;;;;26.73;36.38;158248.69;5021151;28;20460;-77
2023/06/24 11:04:45;;;;;;;4.67;4.17;;;;;;;26.55;36.80;158202.84;5027055;28;20460;-77
2023/06/24 11:07:12;;;;;;;4.60;4.20;;;;;;;26.05;37.61;158073.16;5038535;28;20505;-77
2023/06/24 11:09:41;;;;;;;4.13;3.83;;;;;;;25.71;38.46;157984.09;5016694;28;20459;-77
2023/06/24 11:12:10;;;;;;;4.90;4.50;;;;;;;25.43;39.63;157913.41;5040251;28;20515;-77
2023/06/24 11:14:37;;;;;;;5.00;4.50;;;;;;;25.37;40.20;157897.69;5036527;28;20734;-78
2023/06/24 11:17:04;;;;;;;4.93;4.23;;;;;;;25.72;38.54;157986.72;5034475;28;20881;-78
2023/06/24 11:19:32;;;;;;;4.40;4.10;;;;;;;25.98;39.69;158056.13;5025273;28;20977;-78
2023/06/24 11:22:00;;;;;;;5.07;4.17;;;;;;;26.25;38.93;158125.56;5038606;28;20801;-78
2023/06/24 11:24:27;;;;;;;4.43;4.03;;;;;;;26.45;39.00;158177.94;5036308;28;20771;-78
2023/06/24 11:26:55;;;;;;;4.73;4.33;;;;;;;26.47;38.93;158183.22;5024974;28;20852;-78
2023/06/24 11:29:21;;;;;;;4.60;4.20;;;;;;;26.43;38.81;158172.72;5037095;28;20456;-78